METAR Data
IDs: Format: Raw Decoded Include TAF

Data at: 0737 UTC 18 Nov 2018

PACD 180723Z AUTO 29010KT 10SM FEW009 OVC035 06/05 A2943 RMK AO2 RAE01 P0000 T00560050 TSNO
PACD 180715Z AUTO 29012KT 10SM SCT011 SCT021 OVC033 06/05 A2943 RMK AO2 RAE01 P0000 T00560050 TSNO
PACD 180653Z AUTO 30016KT 7SM -RA BKN009 BKN014 OVC020 06/06 A2942 RMK AO2 RAB19 SLP964 P0002 T00560056 TSNO
PACD 180651Z AUTO 30016KT 6SM RA BR BKN009 BKN014 OVC020 06/06 A2942 RMK AO2 RAB19 P0002 TSNO
PACD 180633Z AUTO 30011KT 8SM -RA FEW009 SCT019 OVC028 06/06 A2941 RMK AO2 RAB19 P0000 T00560056 TSNO
PACD 180553Z AUTO 30013KT 10SM SCT023 SCT031 OVC043 06/06 A2941 RMK AO2 SLP959 60005 T00560056 10067 20056 53020 TSNO
PACD 180544Z AUTO 30012KT 10SM FEW023 BKN043 06/06 A2940 RMK AO2 T00560056 TSNO
PACD 180459Z AUTO 29013KT 10SM FEW008 SCT015 OVC022 06/06 A2939 RMK AO2 T00560056 TSNO
PACD 180453Z AUTO 28013KT 10SM BKN013 OVC021 06/06 A2939 RMK AO2 RAB01E18B36E53 SLP952 P0003 T00610061 TSNO
PACD 180420Z AUTO 30008KT 10SM BKN012 BKN018 OVC023 06/06 A2937 RMK AO2 RAB01E18 P0001 T00610061 TSNO
PACD 180353Z AUTO 29012KT 10SM SCT022 BKN029 BKN046 06/06 A2936 RMK AO2 RAB0255E04 SLP944 P0000 T00610061 TSNO
PACD 180316Z AUTO 28012KT 10SM SCT006 BKN016 OVC021 06/06 A2935 RMK AO2 RAB0255E04 P0000 T00610061 TSNO
PACD 180253Z AUTO 26011KT 7SM BKN007 OVC015 06/06 A2935 RMK AO2 RAE51 SLP938 P0000 60002 T00610061 51011 TSNO
PACD 180251Z AUTO 26010KT 7SM BKN007 OVC015 06/06 A2934 RMK AO2 RAE51 P0000 TSNO
PACD 180243Z 26009KT 5SM -RA BR SCT007 BKN012 OVC022 06/06 A2934 RMK AO2 P0000 T00610061
PACD 180153Z 25014G20KT 3SM -RA BR BKN006 BKN010 OVC013 06/06 A2932 RMK AO2 RAB06 SLP931 P0002 T00610061
PACD 180143Z 25017G25KT 3SM -RA BR BKN008 OVC013 06/06 A2932 RMK AO2 RAB06 P0001 T00610061
PACD 180136Z 24016G23KT 3SM -RA BR FEW006 OVC011 06/06 A2932 RMK AO2 RAB06 P0001 T00610061
PACD 180120Z 24017KT 1 3/4SM -RA BR FEW006 OVC011 06/06 A2932 RMK AO2 RAB06 P0000 T00610056
PACD 180105Z 25017G23KT 2 1/2SM BR OVC013 06/06 A2932 RMK AO2 T00610056
PACD 180053Z 24018G23KT 4SM BR BKN015 OVC020 06/06 A2931 RMK AO2 PK WND 25028/0043 SLP927 T00610056
PACD 180039Z 25018G24KT 10SM BKN015 BKN021 OVC030 07/06 A2931 RMK AO2 T00670056
PACD 180024Z 25015G24KT 7SM BKN014 BKN023 OVC030 07/06 A2931 RMK AO2 T00670056
PACD 180014Z 25016G24KT 10SM OVC015 07/05 A2931 RMK AO2 T00670050
PACD 172353Z 25015G22KT 10SM BKN014 OVC021 06/05 A2932 RMK AO2 SLP928 60002 T00610050 10061 20050 50000
PACD 172351Z 25015G22KT 10SM BKN014 OVC021 06/05 A2932 RMK AO2
PACD 172302Z 25016KT 10SM SCT013 OVC019 06/06 A2932 RMK AO2 T00610056
PACD 172253Z 24015KT 8SM BKN012 OVC022 06/06 A2932 RMK AO2 RAB2159E51 SLP929 P0000 T00610056
PACD 172230Z 25016KT 3SM -RA BR FEW006 OVC011 06/06 A2932 RMK AO2 RAB2159 P0000 T00610061
PACD 172204Z 24014KT 2 1/2SM -RA BR FEW006 OVC013 06/06 A2932 RMK AO2 VIS 1 1/2V4 RAB2159 P0000 T00560056
PACD 172153Z 25013KT 6SM BR SCT006 BKN011 06/06 A2932 RMK AO2 SLP928 T00560056
PACD 172145Z 25014KT 2SM BR SCT006 BKN011 06/06 A2932 RMK AO2 T00560056
PACD 172133Z 25014KT 4SM BR SCT006 BKN011 06/06 A2932 RMK AO2 T00560056
PACD 172126Z 25014KT 3SM BR BKN006 BKN011 06/06 A2931 RMK AO2 T00560056
PACD 172100Z 25016KT 9SM SCT006 BKN032 OVC120 06/06 A2931 RMK AO2 T00560056
PACD 172053Z 25015KT 10SM SCT006 OVC012 06/06 A2931 RMK AO2 RAB1959E09 SLP926 P0000 60002 T00560056 51006
PACD 172023Z 25016KT 7SM SCT006 OVC010 06/06 A2931 RMK AO2 RAB1959E09 P0000 T00560056
PACD 172015Z 25016KT 2SM BR FEW006 OVC010 06/06 A2931 RMK AO2 RAB1959E09 P0000 T00560056
PACD 171959Z 25014KT 1 3/4SM -RA BR BKN010 OVC013 06/06 A2930 RMK AO2 RAB59 P0000 T00560056
PACD 171953Z 25015KT 4SM BR FEW005 OVC010 06/06 A2931 RMK AO2 RAB01E26B38E47 SLP925 P0001 T00560056
PACD 171950Z 25015KT 5SM BR FEW007 OVC010 06/06 A2930 RMK AO2 RAB01E26B38E47 P0001
PACD 171941Z 25014KT 2 1/2SM -RA BR BKN008 OVC012 06/06 A2930 RMK AO2 RAB01E26B38 P0001 T00560056
PACD 171931Z 25013KT 10SM OVC010 06/06 A2930 RMK AO2 RAB01E26 P0001 T00560056
PACD 171923Z 25015KT 3SM -RA BR BKN008 OVC013 06/06 A2930 RMK AO2 RAB01 P0001 T00560056
PACD 171914Z 25012KT 2SM -RA BR OVC010 06/06 A2930 RMK AO2 RAB01 P0000 T00560056
PACD 171900Z 25013KT 1 1/4SM BR OVC012 06/06 A2929 RMK AO2 T00560056
PACD 171853Z 25012KT 3SM BR OVC012 06/06 A2929 RMK AO2 RAE11B23E42 SLP920 P0001 T00560056
PACD 171845Z 25011KT 2SM BR BKN014 OVC033 05/05 A2929 RMK AO2 RAE11B23E42 P0001 T00500050
PACD 171828Z 25012KT 7SM -RA SCT007 BKN014 OVC034 05/05 A2930 RMK AO2 RAE11B23 P0001 T00500050
PACD 171812Z 26008KT 10SM BKN007 BKN024 OVC037 05/05 A2930 RMK AO2 RAE11 P0001 T00500050
PACD 171805Z 26009KT 10SM -RA FEW007 SCT024 OVC037 05/05 A2930 RMK AO2 P0001 T00500050
PACD 171753Z 26009KT 10SM -RA OVC040 05/05 A2930 RMK AO2 SLP922 P0001 60006 T00500050 10056 20044 53003
PACD 171653Z 27004KT 10SM -RA FEW032 BKN039 OVC060 05/04 A2929 RMK AO2 SLP921 P0001 T00500044
PACD 171602Z AUTO 00000KT 10SM -RA FEW017 OVC036 05/04 A2929 RMK AO2 P0001 T00500044 TSNO
PACD 171553Z AUTO 00000KT 10SM -RA FEW017 OVC026 05/04 A2929 RMK AO2 RAB52 SLP919 P0000 T00500044 TSNO
PACD 171453Z AUTO 00000KT 10SM FEW018 OVC024 05/04 A2929 RMK AO2 RAE22 SLP919 P0001 60004 T00500044 56010 TSNO
PACD 171426Z AUTO 00000KT 10SM BKN018 OVC030 05/04 A2929 RMK AO2 RAE22 P0001 T00500044 TSNO
PACD 171400Z AUTO 00000KT 10SM -RA FEW010 SCT017 OVC030 05/04 A2929 RMK AO2 P0001 T00500044 TSNO
PACD 171353Z AUTO 00000KT 10SM -RA FEW010 BKN017 OVC030 05/04 A2929 RMK AO2 SLP921 P0003 T00500044 TSNO
PACD 171253Z AUTO 15004KT 10SM -RA OVC016 05/04 A2930 RMK AO2 RAB41 SLP924 P0000 T00500044 TSNO
PACD 171237Z AUTO 14006KT 10SM BKN016 BKN025 OVC075 06/04 A2931 RMK AO2 T00560044 TSNO
PACD 171153Z AUTO 13011KT 10SM OVC070 06/04 A2932 RMK AO2 SLP929 60012 70012 T00560044 10067 20050 58016 TSNO
PACD 171110Z AUTO 13013KT 10SM SCT018 OVC060 05/04 A2934 RMK AO2 T00500044 TSNO
PACD 171053Z AUTO 14010KT 7SM OVC018 05/04 A2935 RMK AO2 RAE53 SLP939 P0001 T00500044 TSNO
PACD 171002Z AUTO 14009KT 10SM -RA BKN023 BKN028 OVC039 06/04 A2936 RMK AO2 P0001 T00560039 TSNO
PACD 170953Z AUTO 14009KT 10SM -RA SCT021 SCT030 OVC043 06/04 A2936 RMK AO2 RAB0854 SLP942 P0000 T00560039 TSNO
PACD 170912Z AUTO 14011KT 10SM -RA SCT025 BKN065 OVC080 06/04 A2936 RMK AO2 RAB0854 P0000 T00560044 TSNO
PACD 170902Z AUTO 14007KT 10SM -RA BKN025 OVC065 06/04 A2936 RMK AO2 RAB0854 P0000 T00560044 TSNO
PACD 170853Z AUTO 15007KT 10SM SCT025 OVC060 06/04 A2936 RMK AO2 RAE37 SLP944 P0003 60011 T00560044 400830056 58013 TSNO
PACD 170820Z AUTO 14010KT 10SM -RA SCT024 SCT030 OVC038 06/04 A2938 RMK AO2 P0002 T00560044 TSNO
PACD 170804Z AUTO 14011KT 10SM -RA BKN024 OVC033 06/05 A2938 RMK AO2 P0001 T00610050 TSNO
PACD 170753Z AUTO 15010KT 10SM -RA FEW020 SCT025 OVC037 06/06 A2939 RMK AO2 SLP952 P0007 T00610056 TSNO
PACD 170653Z AUTO 16011KT 10SM -RA FEW044 OVC055 06/06 A2940 RMK AO2 RAB26 SLP957 P0001 T00610056 TSNO
PACD 170617Z AUTO 13010KT 10SM FEW017 SCT022 OVC055 07/06 A2939 RMK AO2 T00670056 TSNO
PACD 170553Z AUTO 15015KT 10SM BKN017 OVC060 07/06 A2940 RMK AO2 SLP957 T00670056 10078 20061 56021 TSNO
PACD 170453Z 14014KT 10SM FEW017 BKN060 BKN095 06/05 A2941 RMK AO2 SLP958 T00610050
PACD 170353Z 14014KT 10SM CLR 06/05 A2942 RMK AO2 SLP965 T00610050
PACD 170253Z 17015G21KT 10SM CLR 07/05 A2946 RMK AO2 SLP978 T00670050 55014
PACD 170153Z 14012KT 10SM CLR 07/06 A2945 RMK AO2 SLP974 T00670056
PACD 170053Z 14011KT 10SM BKN085 07/06 A2949 RMK AO2 SLP986 T00670056
PACD 162353Z 14011KT 10SM FEW100 08/06 A2950 RMK AO2 SLP991 T00780056 10083 20061 58018
PACD 162322Z 10007KT 10SM SCT016 08/06 A2951 RMK AO2 T00780061
PACD 162253Z 12006KT 10SM OVC015 07/06 A2953 RMK AO2 SLP002 T00720061
PACD 162235Z 12006KT 10SM FEW014 BKN019 07/06 A2954 RMK AO2 T00720061
PACD 162153Z 11004KT 10SM FEW012 08/06 A2955 RMK AO2 SLP006 T00780056
PACD 162135Z 00000KT 10SM BKN013 07/06 A2956 RMK AO2 T00720056
PACD 162053Z 00000KT 10SM SCT014 BKN120 07/05 A2956 RMK AO2 SLP009 T00720050 58006
PACD 162004Z 21003KT 10SM OVC014 07/06 A2957 RMK AO2 T00670056
PACD 161953Z 00000KT 10SM OVC015 07/06 A2957 RMK AO2 SLP015 T00670056